Aaron Joseph — WCV9877 — position and weather

sailwx.info

Track history (hours):
 
Tides and Currents Weather Stations Pressure Air Temp Water Temp Dewpoint Dewpoint Depression Visibility Wind Speed Wind Dir Waves Ship Positions

Aaron Joseph

Owner: AARON JOSEPH INC, GOLDEN MEADOW, LA. More information available from US FCC via Universal Licensing System and Coast Guard Vessel Documentation Center.

Last reported at 2015-Jul-05 01:33 UTC. Time now 2015-Jul-05 09:29 UTC.
Position N 29°28' W 090°43'.

; draft 2.5 m.

Type: Tug. MMSI: 367028680.

Date/timePositionNaut miles runAvg speedWind from/ knotsBaromVisibWave heightAir tempDewpointWater temp
2015-Jul-05 01:33N 29°28' W 090°43'5 4.7
2015-Jul-05 00:33N 29°33' W 090°42'3 2.6
2015-Jul-04 23:33N 29°33' W 090°45'5 4.5
2015-Jul-04 22:33N 29°32' W 090°50'5 4.8
2015-Jul-04 21:33N 29°34' W 090°56'  
2015-Jul-02 10:33N 29°33' W 090°54'5 4.7
2015-Jul-02 09:33N 29°32' W 090°49'4 4.1
2015-Jul-02 08:33N 29°34' W 090°45'3 3.1
2015-Jul-02 07:33N 29°31' W 090°42'5 4.7
2015-Jul-02 06:33N 29°27' W 090°43'4 4.1
2015-Jul-02 05:30N 29°22' W 090°44'  
2015-Jun-26 02:16N 29°12' W 090°37'  
Track history (hours):
 
Tides and Currents Weather Stations Pressure Air Temp Water Temp Dewpoint Dewpoint Depression Visibility Wind Speed Wind Dir Waves Ship Positions

Aaron Joseph

Owner: AARON JOSEPH INC, GOLDEN MEADOW, LA. More information available from US FCC via Universal Licensing System and Coast Guard Vessel Documentation Center.

Last reported at 2015-Jul-05 01:33 UTC. Time now 2015-Jul-05 09:29 UTC.
Position N 29°28' W 090°43'.

; draft 2.5 m.

Type: Tug. MMSI: 367028680.

Date/timePositionNaut miles runAvg speedWind from/ knotsBaromVisibWave heightAir tempDewpointWater temp
2015-Jul-05 01:33N 29°28' W 090°43'5 4.7
2015-Jul-05 00:33N 29°33' W 090°42'3 2.6
2015-Jul-04 23:33N 29°33' W 090°45'5 4.5
2015-Jul-04 22:33N 29°32' W 090°50'5 4.8
2015-Jul-04 21:33N 29°34' W 090°56'  
2015-Jul-02 10:33N 29°33' W 090°54'5 4.7
2015-Jul-02 09:33N 29°32' W 090°49'4 4.1
2015-Jul-02 08:33N 29°34' W 090°45'3 3.1
2015-Jul-02 07:33N 29°31' W 090°42'5 4.7
2015-Jul-02 06:33N 29°27' W 090°43'4 4.1
2015-Jul-02 05:30N 29°22' W 090°44'  
2015-Jun-26 02:16N 29°12' W 090°37'  

Dump ship's entire track history